Time;durP1;ratioP1;P1;durP2;ratioP2;P2;SDS_P1;SDS_P2;PMS_P1;PMS_P2;Temp;Humidity;BMP_temperature;BMP_pressure;BME280_temperature;BME280_humidity;BME280_pressure;Samples;Min_cycle;Max_cycle;Signal;HPM_P1;HPM_P2
2022/07/16 00:01:26;;;;;;;6.73;2.50;;;16.50;69.40;;;;;;10437410;28;20842;-67
2022/07/16 00:06:28;;;;;;;6.50;2.90;;;16.50;69.30;;;;;;10440184;28;20223;-69
2022/07/16 00:11:29;;;;;;;7.43;2.97;;;16.40;69.90;;;;;;10443292;28;20212;-69
2022/07/16 00:16:30;;;;;;;4.40;2.80;;;16.40;70.50;;;;;;10434752;28;20230;-69
2022/07/16 00:21:30;;;;;;;4.73;2.97;;;16.30;70.60;;;;;;10427077;28;20254;-67
2022/07/16 00:26:31;;;;;;;6.17;3.10;;;16.20;70.80;;;;;;10429484;28;20675;-67
2022/07/16 00:31:32;;;;;;;6.67;3.10;;;16.20;71.20;;;;;;10426935;28;20265;-68
2022/07/16 00:36:36;;;;;;;3.97;2.33;;;16.10;72.10;;;;;;10438153;28;20731;-68
2022/07/16 00:41:38;;;;;;;5.13;2.90;;;16.10;72.40;;;;;;10425886;28;20923;-68
2022/07/16 00:46:39;;;;;;;6.90;2.67;;;16.00;71.90;;;;;;10436852;28;20314;-68
2022/07/16 00:51:50;;;;;;;5.07;2.50;;;15.90;72.20;;;;;;10424768;28;20224;-68
2022/07/16 00:56:51;;;;;;;5.90;2.73;;;15.80;72.70;;;;;;10422613;28;20608;-67
2022/07/16 01:01:51;;;;;;;5.50;2.80;;;15.70;73.10;;;;;;10430813;28;20222;-68
2022/07/16 01:06:53;;;;;;;5.23;3.10;;;15.60;73.20;;;;;;10431994;28;20223;-69
2022/07/16 01:11:54;;;;;;;9.57;3.33;;;15.60;73.90;;;;;;10437257;28;20609;-68
2022/07/16 01:16:54;;;;;;;4.40;2.80;;;15.40;74.20;;;;;;10422468;28;20231;-68
2022/07/16 01:21:58;;;;;;;5.63;2.70;;;15.40;75.20;;;;;;10434372;28;20222;-67
2022/07/16 01:26:59;;;;;;;3.23;2.63;;;15.40;75.20;;;;;;10435717;28;20228;-67
2022/07/16 01:31:59;;;;;;;8.23;3.17;;;15.30;75.50;;;;;;10424087;28;20234;-68
2022/07/16 01:37:03;;;;;;;7.03;3.20;;;15.30;75.70;;;;;;10428745;28;20265;-67
2022/07/16 01:42:06;;;;;;;4.70;3.03;;;15.20;75.90;;;;;;10434948;28;20311;-67
2022/07/16 01:47:10;;;;;;;5.83;2.90;;;15.00;77.10;;;;;;10432718;28;20233;-68
2022/07/16 01:52:17;;;;;;;9.10;2.90;;;15.00;77.70;;;;;;10424267;28;20222;-67
2022/07/16 01:57:19;;;;;;;5.27;2.67;;;14.90;78.30;;;;;;10424529;28;20262;-67
2022/07/16 02:02:20;;;;;;;5.73;2.70;;;14.90;78.70;;;;;;10424287;28;20212;-69
2022/07/16 02:07:21;;;;;;;4.33;2.93;;;15.10;78.80;;;;;;10433739;28;20239;-67
2022/07/16 02:12:21;;;;;;;6.47;3.17;;;14.90;78.40;;;;;;10432269;28;20221;-68
2022/07/16 02:17:23;;;;;;;5.03;2.93;;;14.80;78.60;;;;;;10423789;28;20235;-67
2022/07/16 02:22:23;;;;;;;5.27;3.10;;;14.70;78.90;;;;;;10428167;28;20297;-68
2022/07/16 02:27:24;;;;;;;4.93;3.07;;;14.60;79.40;;;;;;10433257;28;20696;-69
2022/07/16 02:32:25;;;;;;;5.60;3.13;;;14.50;79.50;;;;;;10440942;28;20714;-68
2022/07/16 02:37:25;;;;;;;3.80;2.70;;;14.60;79.90;;;;;;10430045;28;20603;-68
2022/07/16 02:42:26;;;;;;;5.97;2.83;;;14.70;79.50;;;;;;10435400;28;20226;-68
2022/07/16 02:47:26;;;;;;;5.57;2.80;;;14.60;79.20;;;;;;10432890;28;20228;-68
2022/07/16 02:52:27;;;;;;;4.70;2.47;;;14.50;79.10;;;;;;10421908;28;20274;-66
2022/07/16 02:57:27;;;;;;;4.87;3.00;;;14.40;79.70;;;;;;10423035;28;20235;-68
2022/07/16 03:02:28;;;;;;;4.30;2.80;;;14.40;79.70;;;;;;10437612;28;20255;-67
2022/07/16 03:07:29;;;;;;;5.30;2.67;;;14.30;80.70;;;;;;10424195;28;20577;-68
2022/07/16 03:12:29;;;;;;;4.67;2.80;;;14.30;80.90;;;;;;10420965;28;20311;-68
2022/07/16 03:17:30;;;;;;;4.27;2.77;;;14.30;81.10;;;;;;10427180;28;20293;-67
2022/07/16 03:22:31;;;;;;;6.90;3.10;;;14.20;81.40;;;;;;10432181;28;20708;-67
2022/07/16 03:27:31;;;;;;;6.77;3.20;;;14.20;81.70;;;;;;10423241;28;20223;-67
2022/07/16 03:32:32;;;;;;;4.40;2.60;;;14.20;81.50;;;;;;10437316;28;20804;-67
2022/07/16 03:37:33;;;;;;;4.43;2.80;;;14.20;82.40;;;;;;10426702;28;20688;-67
2022/07/16 03:42:34;;;;;;;4.03;2.60;;;14.20;82.20;;;;;;10434422;28;20589;-68
2022/07/16 03:47:34;;;;;;;4.87;2.53;;;14.20;82.60;;;;;;10432654;28;20227;-68
2022/07/16 03:52:35;;;;;;;5.47;2.80;;;14.20;82.70;;;;;;10419734;28;20306;-68
2022/07/16 03:57:35;;;;;;;5.83;2.93;;;14.20;82.80;;;;;;10433386;28;20276;-67
2022/07/16 04:02:39;;;;;;;5.57;2.70;;;14.20;83.00;;;;;;10425627;28;20226;-68
2022/07/16 04:07:40;;;;;;;4.27;2.50;;;14.30;83.10;;;;;;10434399;28;20231;-67
2022/07/16 04:12:40;;;;;;;4.33;2.40;;;14.30;82.10;;;;;;10425615;28;20576;-69
2022/07/16 04:17:41;;;;;;;3.90;2.27;;;14.40;82.40;;;;;;10431502;28;20219;-67
2022/07/16 04:22:41;;;;;;;4.57;2.60;;;14.50;81.80;;;;;;10437000;28;20212;-67
2022/07/16 04:27:43;;;;;;;8.30;2.60;;;14.60;82.30;;;;;;10432343;28;20234;-67
2022/07/16 04:32:44;;;;;;;4.20;2.50;;;14.80;81.80;;;;;;10425532;28;20631;-68
2022/07/16 04:37:45;;;;;;;4.10;2.40;;;15.00;81.20;;;;;;10439379;28;20239;-69
2022/07/16 04:42:45;;;;;;;4.97;2.60;;;15.20;81.10;;;;;;10424005;28;20281;-68
2022/07/16 04:47:46;;;;;;;6.53;2.80;;;15.40;80.90;;;;;;10438702;28;20241;-67
2022/07/16 04:52:46;;;;;;;3.53;2.47;;;16.20;79.10;;;;;;10431346;28;20735;-66
2022/07/16 04:57:47;;;;;;;3.97;2.47;;;17.50;73.30;;;;;;10424386;28;20251;-67
2022/07/16 05:03:00;;;;;;;3.77;2.50;;;17.50;72.50;;;;;;10436818;28;20545;-67
2022/07/16 05:08:03;;;;;;;3.20;2.30;;;17.50;72.80;;;;;;10423315;28;20238;-66
2022/07/16 05:13:05;;;;;;;3.20;2.10;;;20.30;66.10;;;;;;10428770;28;20235;-67
2022/07/16 05:18:09;;;;;;;6.37;2.00;;;22.90;58.00;;;;;;10424070;28;20594;-72
2022/07/16 05:23:09;;;;;;;3.87;1.80;;;23.60;53.60;;;;;;10426779;28;20618;-67
2022/07/16 05:28:10;;;;;;;5.77;2.33;;;22.30;55.50;;;;;;10425020;28;20219;-68
2022/07/16 05:33:11;;;;;;;3.93;2.00;;;21.50;57.50;;;;;;10426834;28;21097;-67
2022/07/16 05:38:11;;;;;;;3.47;1.87;;;22.30;56.50;;;;;;10428834;28;20714;-67
2022/07/16 05:43:12;;;;;;;3.70;1.70;;;24.90;52.00;;;;;;10429651;28;20223;-68
2022/07/16 05:48:15;;;;;;;5.17;2.00;;;27.00;47.50;;;;;;10424005;28;20298;-69
2022/07/16 05:53:16;;;;;;;5.03;2.00;;;28.70;44.40;;;;;;10428029;28;20239;-68
2022/07/16 05:58:16;;;;;;;5.43;2.37;;;29.50;42.80;;;;;;10432380;28;20323;-68
2022/07/16 06:03:17;;;;;;;6.70;2.50;;;30.40;41.20;;;;;;10422542;28;20265;-69
2022/07/16 06:08:17;;;;;;;5.13;2.50;;;31.20;39.60;;;;;;10433047;28;20307;-68
2022/07/16 06:13:18;;;;;;;6.73;2.20;;;32.00;38.60;;;;;;10436915;28;20227;-68
2022/07/16 06:18:18;;;;;;;3.07;1.90;;;32.70;37.10;;;;;;10436260;28;20215;-68
2022/07/16 06:23:19;;;;;;;4.10;1.90;;;33.30;36.00;;;;;;10427745;28;20227;-68
2022/07/16 06:28:20;;;;;;;6.37;2.10;;;33.90;35.30;;;;;;10424533;28;20220;-69
2022/07/16 06:33:20;;;;;;;3.47;1.50;;;34.40;34.10;;;;;;10423299;28;20235;-68
2022/07/16 06:38:24;;;;;;;3.23;1.50;;;35.20;32.70;;;;;;10423678;28;20224;-68
2022/07/16 06:43:25;;;;;;;3.37;1.40;;;35.80;31.60;;;;;;10426924;28;20239;-69
2022/07/16 06:48:25;;;;;;;5.57;1.57;;;36.40;30.80;;;;;;10423423;28;20562;-69
2022/07/16 06:53:27;;;;;;;4.33;1.60;;;36.60;30.30;;;;;;10426699;28;20216;-69
2022/07/16 06:58:27;;;;;;;3.03;1.57;;;36.90;29.90;;;;;;10427073;28;20243;-68
2022/07/16 07:03:31;;;;;;;1.73;1.47;;;36.90;29.80;;;;;;10421292;28;20220;-69
2022/07/16 07:08:32;;;;;;;4.43;1.50;;;37.40;30.00;;;;;;10424903;28;20220;-69
2022/07/16 07:13:33;;;;;;;3.83;1.77;;;37.80;29.60;;;;;;10427674;28;20224;-68
2022/07/16 07:18:33;;;;;;;2.97;1.40;;;37.80;29.30;;;;;;10429189;28;20242;-69
2022/07/16 07:23:34;;;;;;;4.37;1.67;;;38.30;28.70;;;;;;10426013;28;20234;-70
2022/07/16 07:28:34;;;;;;;5.20;1.43;;;38.60;28.20;;;;;;10432316;28;20224;-69
2022/07/16 07:33:36;;;;;;;3.90;1.50;;;38.60;28.20;;;;;;10450001;28;20600;-69
2022/07/16 07:38:37;;;;;;;3.67;1.70;;;38.40;28.50;;;;;;10443671;28;20350;-69
2022/07/16 07:43:38;;;;;;;4.03;1.50;;;38.60;28.40;;;;;;10428747;28;20994;-70
2022/07/16 07:48:38;;;;;;;4.40;1.57;;;38.80;28.50;;;;;;10432542;28;20248;-70
2022/07/16 07:53:39;;;;;;;4.27;1.60;;;38.50;28.40;;;;;;10433781;28;20216;-70
2022/07/16 07:58:40;;;;;;;3.60;1.60;;;39.00;28.30;;;;;;10432069;28;20242;-68
2022/07/16 08:03:40;;;;;;;3.70;1.87;;;40.10;28.10;;;;;;10432728;28;20649;-70
2022/07/16 08:08:44;;;;;;;4.80;1.77;;;40.60;27.30;;;;;;10433016;28;20302;-68
2022/07/16 08:13:44;;;;;;;5.73;1.83;;;40.50;26.80;;;;;;10433834;28;20639;-69
2022/07/16 08:18:45;;;;;;;3.70;1.70;;;40.30;27.30;;;;;;10430929;28;20269;-70
2022/07/16 08:29:05;;;;;;;4.73;1.77;;;40.50;27.20;;;;;;10431590;28;20307;-70
2022/07/16 08:34:05;;;;;;;3.07;1.70;;;41.60;26.20;;;;;;10444768;28;20322;-69
2022/07/16 08:39:06;;;;;;;2.70;1.67;;;40.60;26.80;;;;;;10425526;28;20283;-70
2022/07/16 08:44:07;;;;;;;3.07;1.70;;;40.50;27.00;;;;;;10435786;28;20211;-69
2022/07/16 08:49:08;;;;;;;5.70;1.80;;;41.20;26.50;;;;;;10446586;28;20277;-72
2022/07/16 08:54:12;;;;;;;5.40;1.80;;;41.70;26.20;;;;;;10432486;28;20270;-68
2022/07/16 08:59:14;;;;;;;4.37;1.73;;;41.80;25.60;;;;;;10429407;28;20744;-68
2022/07/16 09:04:14;;;;;;;2.90;1.88;;;42.00;25.60;;;;;;10434690;28;20240;-68
2022/07/16 09:09:15;;;;;;;3.93;1.60;;;42.10;25.30;;;;;;10425383;28;20224;-69
2022/07/16 09:14:18;;;;;;;3.53;1.70;;;41.00;26.20;;;;;;10425937;28;20221;-69
2022/07/16 09:19:28;;;;;;;2.60;1.40;;;39.30;27.00;;;;;;10425390;28;20711;-68
2022/07/16 09:24:38;;;;;;;1.70;1.60;;;37.80;29.00;;;;;;10424823;28;20227;-68
2022/07/16 09:30:02;;;;;;;8.03;2.30;;;40.60;27.10;;;;;;10427982;28;20219;-69
2022/07/16 09:35:14;;;;;;;2.47;2.00;;;41.80;25.70;;;;;;10422173;28;20882;-71
2022/07/16 09:40:27;;;;;;;7.17;2.23;;;42.10;25.10;;;;;;10434113;28;20231;-70
2022/07/16 09:45:28;;;;;;;4.23;2.43;;;42.10;25.00;;;;;;10441625;28;20630;-69
2022/07/16 09:50:36;;;;;;;4.80;1.97;;;42.80;24.50;;;;;;10429227;28;20342;-71
2022/07/16 09:55:53;;;;;;;5.03;1.60;;;42.60;24.50;;;;;;10421916;28;20231;-71
2022/07/16 10:00:54;;;;;;;2.07;1.70;;;43.50;23.90;;;;;;10430513;28;20216;-70
2022/07/16 10:05:55;;;;;;;4.13;1.47;;;40.80;24.80;;;;;;10421446;28;20216;-71
2022/07/16 10:10:57;;;;;;;2.80;2.03;;;39.10;27.00;;;;;;10434371;28;20254;-71
2022/07/16 10:15:58;;;;;;;6.97;1.60;;;37.20;28.20;;;;;;10450592;28;20219;-71
2022/07/16 10:21:31;;;;;;;4.10;1.67;;;38.10;27.90;;;;;;10424020;28;20224;-71
2022/07/16 10:26:32;;;;;;;4.03;1.80;;;39.30;26.80;;;;;;10425644;28;20221;-71
2022/07/16 10:37:04;;;;;;;5.20;1.93;;;35.30;30.00;;;;;;10433708;28;20224;-72
2022/07/16 10:42:06;;;;;;;4.57;1.87;;;34.00;31.70;;;;;;10421816;28;20691;-73
2022/07/16 10:47:06;;;;;;;5.57;1.90;;;33.40;32.30;;;;;;10439397;28;20223;-71
2022/07/16 10:52:16;;;;;;;2.40;1.97;;;35.70;30.00;;;;;;10420752;28;20220;-71
2022/07/16 10:57:17;;;;;;;5.27;2.20;;;36.50;29.50;;;;;;10422930;28;20224;-72
2022/07/16 11:02:18;;;;;;;6.93;2.63;;;36.30;29.30;;;;;;10425964;28;20216;-72
2022/07/16 11:07:21;;;;;;;3.07;1.90;;;34.40;31.10;;;;;;10429633;28;20231;-72
2022/07/16 11:12:25;;;;;;;4.10;1.83;;;33.90;31.50;;;;;;10436044;28;20855;-72
2022/07/16 11:17:29;;;;;;;5.33;2.10;;;34.50;30.90;;;;;;10453101;28;20310;-71
2022/07/16 11:22:31;;;;;;;3.07;2.27;;;35.00;28.80;;;;;;10426602;28;20311;-72
2022/07/16 11:27:37;;;;;;;2.83;1.90;;;33.40;31.60;;;;;;10439009;28;20691;-71
2022/07/16 11:32:42;;;;;;;2.47;1.90;;;35.00;29.90;;;;;;10442105;28;20231;-70
2022/07/16 11:37:53;;;;;;;3.67;2.10;;;33.40;31.50;;;;;;10438023;28;20229;-72
2022/07/16 11:42:58;;;;;;;3.27;1.83;;;31.50;34.50;;;;;;10442664;28;20216;-72
2022/07/16 11:48:10;;;;;;;5.80;1.87;;;30.50;36.20;;;;;;10434157;28;20217;-71
2022/07/16 11:53:26;;;;;;;5.60;1.93;;;29.80;37.70;;;;;;10444546;28;20645;-70
2022/07/16 11:58:26;;;;;;;3.27;1.77;;;29.60;37.60;;;;;;10440606;28;20224;-71
2022/07/16 12:03:27;;;;;;;7.57;2.17;;;29.30;38.40;;;;;;10437839;28;20228;-72
2022/07/16 12:08:28;;;;;;;3.40;1.90;;;28.50;40.50;;;;;;10451554;28;20223;-71
2022/07/16 12:13:29;;;;;;;2.70;1.70;;;28.10;41.40;;;;;;10446676;28;20220;-71
2022/07/16 12:18:29;;;;;;;10.00;2.73;;;28.10;41.40;;;;;;10436210;28;20223;-71
2022/07/16 12:23:33;;;;;;;5.30;2.00;;;28.40;41.60;;;;;;10443308;28;20223;-71
2022/07/16 12:28:33;;;;;;;3.00;1.77;;;28.40;42.00;;;;;;10442695;28;20216;-69
2022/07/16 12:33:39;;;;;;;3.97;1.80;;;28.90;41.20;;;;;;10440465;28;20234;-70
2022/07/16 12:38:52;;;;;;;13.13;2.70;;;28.90;40.70;;;;;;10436101;28;20294;-69
2022/07/16 12:44:00;;;;;;;4.30;1.90;;;28.40;42.70;;;;;;10449085;28;20286;-71
2022/07/16 12:49:03;;;;;;;3.00;1.70;;;28.20;42.90;;;;;;10433623;28;20325;-70
2022/07/16 12:54:05;;;;;;;7.53;2.10;;;28.20;42.60;;;;;;10442962;28;20697;-70
2022/07/16 12:59:06;;;;;;;3.93;2.00;;;28.10;43.00;;;;;;10446531;28;20802;-71
2022/07/16 13:04:07;;;;;;;5.30;1.83;;;27.90;42.30;;;;;;10443890;28;20268;-71
2022/07/16 13:09:08;;;;;;;3.67;1.80;;;27.40;43.20;;;;;;10424802;28;20239;-72
2022/07/16 13:14:09;;;;;;;4.03;2.57;;;27.60;43.10;;;;;;10443611;28;20230;-71
2022/07/16 13:19:11;;;;;;;3.57;1.87;;;27.80;43.30;;;;;;10425157;28;20256;-71
2022/07/16 13:24:12;;;;;;;5.50;2.40;;;28.10;42.60;;;;;;10441147;28;20581;-72
2022/07/16 13:29:13;;;;;;;5.17;2.00;;;28.00;43.00;;;;;;10432613;28;20854;-71
2022/07/16 13:34:14;;;;;;;2.57;1.80;;;27.80;43.70;;;;;;10440509;28;20318;-71
2022/07/16 13:39:16;;;;;;;7.67;2.27;;;27.70;43.30;;;;;;10437898;28;20644;-72
2022/07/16 13:44:16;;;;;;;2.23;1.73;;;27.50;44.30;;;;;;10435013;28;20228;-72
2022/07/16 13:49:17;;;;;;;3.53;1.97;;;27.80;44.40;;;;;;10436857;28;20626;-72
2022/07/16 13:54:17;;;;;;;4.77;2.10;;;28.20;43.10;;;;;;10439706;28;20284;-71
2022/07/16 13:59:18;;;;;;;4.30;1.80;;;28.10;42.30;;;;;;10434293;28;20310;-72
2022/07/16 14:04:22;;;;;;;3.43;1.80;;;28.00;42.20;;;;;;10440693;28;20224;-71
2022/07/16 14:09:22;;;;;;;3.53;1.60;;;28.30;42.00;;;;;;10437888;28;20224;-72
2022/07/16 14:14:23;;;;;;;3.83;1.90;;;28.40;41.30;;;;;;10434568;28;20724;-71
2022/07/16 14:19:23;;;;;;;4.27;1.80;;;28.20;41.20;;;;;;10440188;28;20237;-73
2022/07/16 14:24:24;;;;;;;5.17;1.60;;;27.70;42.60;;;;;;10435044;28;21995;-71
2022/07/16 14:29:25;;;;;;;3.63;1.80;;;27.70;42.70;;;;;;10432519;28;20258;-71
2022/07/16 14:34:25;;;;;;;2.17;1.60;;;27.70;42.80;;;;;;10433745;28;20238;-71
2022/07/16 14:39:26;;;;;;;2.37;1.60;;;27.60;42.50;;;;;;10432048;28;20303;-71
2022/07/16 14:44:27;;;;;;;3.57;1.63;;;27.50;42.00;;;;;;10437350;28;20318;-71
2022/07/16 14:49:30;;;;;;;2.10;1.50;;;27.70;41.50;;;;;;10425381;28;20224;-70
2022/07/16 14:54:31;;;;;;;1.73;1.50;;;27.30;41.70;;;;;;10456310;28;20219;-72
2022/07/16 14:59:31;;;;;;;3.60;1.53;;;27.30;42.10;;;;;;10430600;28;20242;-72
2022/07/16 15:04:32;;;;;;;4.03;2.03;;;27.50;42.10;;;;;;10436831;28;20580;-72
2022/07/16 15:09:36;;;;;;;1.87;1.60;;;27.50;41.90;;;;;;10437788;28;20306;-71
2022/07/16 15:14:36;;;;;;;3.83;1.90;;;27.20;42.00;;;;;;10434272;28;20218;-72
2022/07/16 15:19:37;;;;;;;2.10;1.87;;;27.20;42.40;;;;;;10425208;28;20232;-71
2022/07/16 15:24:38;;;;;;;2.47;2.00;;;27.50;42.20;;;;;;10443398;28;21151;-72
2022/07/16 15:29:38;;;;;;;7.60;2.10;;;27.20;42.50;;;;;;10422890;28;20241;-72
2022/07/16 15:34:39;;;;;;;5.43;2.00;;;26.80;43.20;;;;;;10440376;28;20224;-71
2022/07/16 15:39:40;;;;;;;3.33;1.93;;;26.80;43.30;;;;;;10445030;28;20235;-71
2022/07/16 15:44:41;;;;;;;4.47;2.00;;;26.80;43.00;;;;;;10429640;28;20527;-72
2022/07/16 15:49:42;;;;;;;4.83;1.90;;;26.80;43.40;;;;;;10436034;28;20277;-71
2022/07/16 15:54:42;;;;;;;2.23;1.60;;;26.80;43.10;;;;;;10429385;28;20737;-72
2022/07/16 15:59:43;;;;;;;2.83;2.00;;;26.70;43.40;;;;;;10458224;28;20229;-72
2022/07/16 16:04:44;;;;;;;1.77;1.53;;;26.60;43.70;;;;;;10445896;28;20227;-71
2022/07/16 16:09:44;;;;;;;2.60;1.80;;;26.50;44.20;;;;;;10444778;28;20225;-72
2022/07/16 16:14:45;;;;;;;3.07;1.70;;;26.40;44.10;;;;;;10445034;28;20231;-72
2022/07/16 16:19:46;;;;;;;4.13;3.37;;;26.30;44.40;;;;;;10470069;28;20239;-71
2022/07/16 16:24:46;;;;;;;14.13;10.40;;;26.20;44.70;;;;;;10443353;28;20218;-72
2022/07/16 16:29:47;;;;;;;4.37;2.90;;;26.20;44.90;;;;;;10443401;28;20678;-71
2022/07/16 16:34:48;;;;;;;2.27;2.07;;;26.10;44.90;;;;;;10449927;28;20226;-73
2022/07/16 16:39:49;;;;;;;2.53;1.60;;;26.00;44.80;;;;;;10449071;28;20242;-72
2022/07/16 16:44:53;;;;;;;3.60;1.63;;;26.00;44.60;;;;;;10442099;28;20267;-73
2022/07/16 16:49:53;;;;;;;1.97;1.50;;;25.90;44.60;;;;;;10426330;28;20307;-72
2022/07/16 16:54:54;;;;;;;3.10;1.50;;;25.70;44.50;;;;;;10445877;28;20280;-71
2022/07/16 16:59:55;;;;;;;1.60;1.27;;;25.60;44.90;;;;;;10433553;28;20705;-71
2022/07/16 17:04:55;;;;;;;1.40;1.30;;;25.40;44.30;;;;;;10432163;28;20712;-71
2022/07/16 17:09:56;;;;;;;1.93;1.50;;;25.40;44.60;;;;;;10465571;28;20227;-71
2022/07/16 17:14:56;;;;;;;2.90;1.77;;;25.20;44.60;;;;;;10439270;28;20295;-71
2022/07/16 17:19:57;;;;;;;1.40;1.30;;;25.20;44.60;;;;;;10432504;28;20225;-70
2022/07/16 17:24:58;;;;;;;2.97;1.40;;;25.10;44.20;;;;;;10440307;28;20231;-71
2022/07/16 17:29:59;;;;;;;2.43;1.10;;;25.00;44.50;;;;;;10432678;28;20220;-71
2022/07/16 17:34:59;;;;;;;2.47;1.40;;;25.00;44.10;;;;;;10439998;28;20229;-71
2022/07/16 17:40:00;;;;;;;3.90;1.47;;;24.90;44.00;;;;;;10440511;28;20309;-72
2022/07/16 17:45:02;;;;;;;2.90;1.23;;;24.90;43.20;;;;;;10443990;28;20219;-72
2022/07/16 17:50:05;;;;;;;3.40;1.50;;;24.80;43.50;;;;;;10438061;28;20213;-72
2022/07/16 17:55:07;;;;;;;3.30;1.40;;;24.70;43.80;;;;;;10429993;28;20220;-72
2022/07/16 18:00:11;;;;;;;2.23;1.37;;;24.60;44.10;;;;;;10443691;28;20267;-72
2022/07/16 18:05:13;;;;;;;1.40;1.27;;;24.50;44.10;;;;;;10434225;28;20343;-72
2022/07/16 18:10:14;;;;;;;2.70;1.10;;;24.40;44.70;;;;;;10438489;28;20282;-72
2022/07/16 18:15:17;;;;;;;2.20;1.10;;;24.30;44.00;;;;;;10440562;28;20673;-72
2022/07/16 18:20:17;;;;;;;1.10;1.00;;;24.20;44.70;;;;;;10442832;28;20192;-75
2022/07/16 18:25:18;;;;;;;1.70;0.93;;;24.10;45.10;;;;;;10422248;28;20185;-72
2022/07/16 18:30:19;;;;;;;2.93;1.13;;;24.00;45.60;;;;;;10442168;28;20192;-71
2022/07/16 18:35:20;;;;;;;4.57;1.27;;;23.90;45.90;;;;;;10428314;28;20666;-71
2022/07/16 18:40:20;;;;;;;4.43;1.20;;;23.70;46.10;;;;;;10429800;28;20234;-72
2022/07/16 18:45:21;;;;;;;3.33;0.97;;;23.60;46.50;;;;;;10441218;28;20195;-72
2022/07/16 18:50:21;;;;;;;2.07;0.90;;;23.50;46.90;;;;;;10427837;28;20184;-71
2022/07/16 18:55:22;;;;;;;2.43;1.00;;;23.40;47.20;;;;;;10432687;28;20184;-71
2022/07/16 19:00:23;;;;;;;1.70;1.20;;;23.20;47.40;;;;;;10441483;28;20188;-71
2022/07/16 19:05:24;;;;;;;3.20;1.23;;;23.10;47.90;;;;;;10431419;28;20586;-72
2022/07/16 19:10:24;;;;;;;3.23;1.30;;;23.00;48.30;;;;;;10432491;28;20223;-72
2022/07/16 19:15:25;;;;;;;5.87;1.23;;;22.80;48.60;;;;;;10443713;28;20273;-72
2022/07/16 19:20:26;;;;;;;2.57;1.10;;;22.70;49.10;;;;;;10433096;28;20219;-69
2022/07/16 19:25:26;;;;;;;3.13;1.53;;;22.60;49.80;;;;;;10440395;28;20239;-69
2022/07/16 19:30:27;;;;;;;2.83;1.57;;;22.40;50.30;;;;;;10431065;28;20223;-69
2022/07/16 19:35:27;;;;;;;1.60;1.50;;;22.30;50.50;;;;;;10441426;28;20257;-69
2022/07/16 19:40:28;;;;;;;2.27;1.40;;;22.10;51.20;;;;;;10434936;28;20227;-69
2022/07/16 19:45:29;;;;;;;4.87;1.33;;;22.00;51.50;;;;;;10450123;28;20248;-69
2022/07/16 19:50:29;;;;;;;1.70;1.60;;;21.90;51.90;;;;;;10446336;28;20246;-69
2022/07/16 20:00:49;;;;;;;2.83;1.47;;;21.60;52.30;;;;;;10443230;28;20889;-69
2022/07/16 20:05:50;;;;;;;1.80;1.70;;;21.60;52.40;;;;;;10449062;28;20227;-69
2022/07/16 20:10:51;;;;;;;5.80;1.50;;;21.50;52.70;;;;;;10433860;28;20232;-69
2022/07/16 20:15:52;;;;;;;4.77;1.90;;;21.40;52.90;;;;;;10449103;28;20726;-69
2022/07/16 20:21:02;;;;;;;2.20;1.77;;;21.30;53.20;;;;;;10447542;28;20219;-70
2022/07/16 20:26:04;;;;;;;3.03;1.70;;;21.20;53.30;;;;;;10450702;28;20247;-69
2022/07/16 20:31:05;;;;;;;3.33;1.60;;;21.10;53.70;;;;;;10442541;28;20232;-71
2022/07/16 20:36:06;;;;;;;3.43;1.57;;;21.00;54.10;;;;;;10428678;28;20231;-69
2022/07/16 20:41:10;;;;;;;1.90;1.43;;;20.90;54.20;;;;;;10429616;28;20219;-69
2022/07/16 20:46:22;;;;;;;3.67;1.70;;;20.80;54.50;;;;;;10449509;28;20227;-69
2022/07/16 20:51:25;;;;;;;2.43;1.33;;;20.70;54.60;;;;;;10432160;28;20317;-70
2022/07/16 20:56:26;;;;;;;2.63;1.60;;;20.60;54.80;;;;;;10437695;28;20607;-69
2022/07/16 21:01:29;;;;;;;4.37;2.10;;;20.50;55.20;;;;;;10446769;28;20220;-69
2022/07/16 21:06:30;;;;;;;3.00;1.80;;;20.40;55.60;;;;;;10428090;28;20944;-71
2022/07/16 21:11:34;;;;;;;3.23;2.20;;;20.20;56.40;;;;;;10436170;28;20228;-69
2022/07/16 21:16:42;;;;;;;3.67;1.90;;;20.00;56.70;;;;;;10448655;28;20760;-70
2022/07/16 21:21:55;;;;;;;4.43;2.00;;;20.00;57.10;;;;;;10441522;28;20358;-70
2022/07/16 21:27:25;;;;;;;1.93;1.70;;;19.90;57.50;;;;;;10444429;28;20223;-70
2022/07/16 21:32:44;;;;;;;3.47;1.43;;;19.70;58.00;;;;;;10454928;28;20227;-69
2022/07/16 21:37:50;;;;;;;2.90;1.97;;;19.50;58.70;;;;;;10423796;28;20239;-69
2022/07/16 21:43:00;;;;;;;2.70;2.07;;;19.40;59.10;;;;;;10443093;28;20223;-69
2022/07/16 21:48:03;;;;;;;3.93;2.63;;;19.30;59.40;;;;;;10437698;28;20333;-68
2022/07/16 21:53:05;;;;;;;3.23;2.50;;;19.20;60.00;;;;;;10431117;28;20224;-69
2022/07/16 21:58:26;;;;;;;3.87;2.13;;;19.00;60.60;;;;;;10431499;28;20858;-69
2022/07/16 22:08:50;;;;;;;2.40;1.80;;;18.90;61.80;;;;;;10439651;28;20223;-69
2022/07/16 22:13:50;;;;;;;6.40;1.80;;;18.80;62.00;;;;;;10437819;28;20690;-69
2022/07/16 22:24:10;;;;;;;3.37;1.97;;;18.80;62.00;;;;;;10446081;28;20623;-68
2022/07/16 22:29:11;;;;;;;4.30;2.20;;;18.70;62.10;;;;;;10431131;28;20214;-69
2022/07/16 22:34:14;;;;;;;3.33;2.50;;;18.60;62.60;;;;;;10438679;28;20226;-68
2022/07/16 22:39:15;;;;;;;6.10;3.57;;;18.60;62.80;;;;;;10433407;28;20227;-69
2022/07/16 22:44:16;;;;;;;9.00;2.40;;;18.70;62.50;;;;;;10428258;28;20228;-69
2022/07/16 22:49:16;;;;;;;4.60;2.30;;;18.70;61.70;;;;;;10439785;28;20222;-69
2022/07/16 22:54:17;;;;;;;7.77;2.40;;;18.70;61.40;;;;;;10437272;28;20253;-69
2022/07/16 22:59:17;;;;;;;2.90;2.03;;;18.70;61.30;;;;;;10436620;28;20276;-69
2022/07/16 23:04:18;;;;;;;7.23;2.27;;;18.60;61.40;;;;;;10454524;28;20309;-69
2022/07/16 23:09:19;;;;;;;2.93;2.10;;;18.50;61.30;;;;;;10449515;28;20222;-70
2022/07/16 23:14:20;;;;;;;5.67;2.17;;;18.50;61.30;;;;;;10440624;28;20231;-69
2022/07/16 23:19:21;;;;;;;8.57;2.43;;;18.40;61.00;;;;;;10454288;28;20230;-69
2022/07/16 23:24:21;;;;;;;8.17;2.90;;;18.40;61.50;;;;;;10413058;28;20262;-69
2022/07/16 23:29:24;;;;;;;14.07;4.03;;;18.30;61.50;;;;;;10442212;28;20226;-69
2022/07/16 23:34:28;;;;;;;10.47;3.27;;;18.20;61.80;;;;;;10441754;28;20237;-69
2022/07/16 23:39:29;;;;;;;6.10;2.17;;;18.10;62.00;;;;;;10449995;28;20227;-69
2022/07/16 23:44:29;;;;;;;6.20;2.07;;;18.10;61.40;;;;;;10458569;28;20227;-69
2022/07/16 23:49:30;;;;;;;5.90;2.33;;;18.10;61.40;;;;;;10444897;28;20216;-69
2022/07/16 23:54:30;;;;;;;6.10;1.83;;;18.00;61.60;;;;;;10447251;28;20706;-69
2022/07/16 23:59:31;;;;;;;8.27;2.03;;;18.00;61.90;;;;;;10442468;28;20732;-70
